sensor_id;sensor_type;location;lat;lon;timestamp;temperature;humidity
8095;DHT22;4090;49.270;8.696;2023-07-28T10:15:39;20.80;99.90
8095;DHT22;4090;49.270;8.696;2023-07-28T10:18:25;20.80;99.90
8095;DHT22;4090;49.270;8.696;2023-07-28T10:21:10;20.70;99.90
8095;DHT22;4090;49.270;8.696;2023-07-28T10:23:54;20.70;99.90
8095;DHT22;4090;49.270;8.696;2023-07-28T10:26:38;20.70;99.90
8095;DHT22;4090;49.270;8.696;2023-07-28T10:29:23;20.70;99.90
8095;DHT22;4090;49.270;8.696;2023-07-28T10:32:05;20.70;99.90
8095;DHT22;4090;49.270;8.696;2023-07-28T10:34:59;20.70;99.90
8095;DHT22;4090;49.270;8.696;2023-07-28T10:37:43;20.80;99.90
8095;DHT22;4090;49.270;8.696;2023-07-28T10:40:30;20.80;99.90
8095;DHT22;4090;49.270;8.696;2023-07-28T10:43:14;20.80;99.90
8095;DHT22;4090;49.270;8.696;2023-07-28T10:45:57;20.80;99.90
8095;DHT22;4090;49.270;8.696;2023-07-28T10:48:42;20.80;99.90
8095;DHT22;4090;49.270;8.696;2023-07-28T10:51:25;20.80;99.90
8095;DHT22;4090;49.270;8.696;2023-07-28T10:54:10;20.80;99.90
8095;DHT22;4090;49.270;8.696;2023-07-28T10:56:56;20.90;99.90
8095;DHT22;4090;49.270;8.696;2023-07-28T10:59:38;20.90;99.90
8095;DHT22;4090;49.270;8.696;2023-07-28T11:02:21;20.90;99.90
8095;DHT22;4090;49.270;8.696;2023-07-28T11:05:06;20.90;99.90
8095;DHT22;4090;49.270;8.696;2023-07-28T11:07:49;21.00;99.90
8095;DHT22;4090;49.270;8.696;2023-07-28T11:10:31;21.00;99.90
8095;DHT22;4090;49.270;8.696;2023-07-28T11:13:13;20.90;99.90
8095;DHT22;4090;49.270;8.696;2023-07-28T11:15:57;21.00;99.90
8095;DHT22;4090;49.270;8.696;2023-07-28T11:18:40;20.90;99.90
8095;DHT22;4090;49.270;8.696;2023-07-28T11:21:22;21.00;99.90
8095;DHT22;4090;49.270;8.696;2023-07-28T11:24:05;21.10;99.90
8095;DHT22;4090;49.270;8.696;2023-07-28T11:26:47;21.10;99.90
8095;DHT22;4090;49.270;8.696;2023-07-28T11:29:29;21.10;99.90
8095;DHT22;4090;49.270;8.696;2023-07-28T11:32:12;21.10;99.90
8095;DHT22;4090;49.270;8.696;2023-07-28T11:35:04;21.20;99.90
8095;DHT22;4090;49.270;8.696;2023-07-28T11:37:47;21.10;99.90
8095;DHT22;4090;49.270;8.696;2023-07-28T11:40:30;21.10;99.90
8095;DHT22;4090;49.270;8.696;2023-07-28T11:43:13;21.00;99.90
8095;DHT22;4090;49.270;8.696;2023-07-28T11:45:55;21.00;99.90
8095;DHT22;4090;49.270;8.696;2023-07-28T11:48:37;21.00;99.90
8095;DHT22;4090;49.270;8.696;2023-07-28T11:51:20;21.10;99.90
8095;DHT22;4090;49.270;8.696;2023-07-28T11:54:02;21.00;99.90
8095;DHT22;4090;49.270;8.696;2023-07-28T11:56:45;21.10;99.90
8095;DHT22;4090;49.270;8.696;2023-07-28T11:59:27;21.10;99.90
8095;DHT22;4090;49.270;8.696;2023-07-28T12:02:10;21.10;99.90
8095;DHT22;4090;49.270;8.696;2023-07-28T12:04:52;21.10;99.90
8095;DHT22;4090;49.270;8.696;2023-07-28T12:07:36;21.10;99.90
8095;DHT22;4090;49.270;8.696;2023-07-28T12:10:18;21.10;99.90
8095;DHT22;4090;49.270;8.696;2023-07-28T12:13:04;21.10;99.90
8095;DHT22;4090;49.270;8.696;2023-07-28T12:15:46;21.10;99.90
8095;DHT22;4090;49.270;8.696;2023-07-28T12:18:30;21.10;99.90
8095;DHT22;4090;49.270;8.696;2023-07-28T12:21:12;21.10;99.90
8095;DHT22;4090;49.270;8.696;2023-07-28T12:23:56;21.10;99.90
8095;DHT22;4090;49.270;8.696;2023-07-28T12:26:38;21.20;99.90
8095;DHT22;4090;49.270;8.696;2023-07-28T12:29:20;21.20;99.90
8095;DHT22;4090;49.270;8.696;2023-07-28T12:32:02;21.10;99.90
8095;DHT22;4090;49.270;8.696;2023-07-28T12:34:44;21.20;99.90
8095;DHT22;4090;49.270;8.696;2023-07-28T12:37:26;21.30;99.90
8095;DHT22;4090;49.270;8.696;2023-07-28T12:40:10;21.20;99.90
8095;DHT22;4090;49.270;8.696;2023-07-28T12:42:52;21.20;99.90
8095;DHT22;4090;49.270;8.696;2023-07-28T12:45:35;21.10;99.90
8095;DHT22;4090;49.270;8.696;2023-07-28T12:48:17;21.10;99.90
8095;DHT22;4090;49.270;8.696;2023-07-28T12:50:59;21.10;99.90
8095;DHT22;4090;49.270;8.696;2023-07-28T12:53:41;21.10;99.90
8095;DHT22;4090;49.270;8.696;2023-07-28T12:56:25;21.00;99.90
8095;DHT22;4090;49.270;8.696;2023-07-28T12:59:07;21.10;99.90
8095;DHT22;4090;49.270;8.696;2023-07-28T13:01:49;21.00;99.90
8095;DHT22;4090;49.270;8.696;2023-07-28T13:04:31;20.90;99.90
8095;DHT22;4090;49.270;8.696;2023-07-28T13:07:13;20.90;99.90
8095;DHT22;4090;49.270;8.696;2023-07-28T13:09:55;20.90;99.90
8095;DHT22;4090;49.270;8.696;2023-07-28T13:12:39;20.80;99.90
8095;DHT22;4090;49.270;8.696;2023-07-28T13:15:21;20.80;99.90
8095;DHT22;4090;49.270;8.696;2023-07-28T13:18:03;20.80;99.90
8095;DHT22;4090;49.270;8.696;2023-07-28T13:20:44;20.80;99.90
8095;DHT22;4090;49.270;8.696;2023-07-28T13:23:26;20.90;99.90
8095;DHT22;4090;49.270;8.696;2023-07-28T13:26:08;20.80;99.90
8095;DHT22;4090;49.270;8.696;2023-07-28T13:28:51;20.80;99.90
8095;DHT22;4090;49.270;8.696;2023-07-28T13:31:33;20.80;99.90
8095;DHT22;4090;49.270;8.696;2023-07-28T13:34:15;20.80;99.90
8095;DHT22;4090;49.270;8.696;2023-07-28T13:36:57;20.90;99.90
8095;DHT22;4090;49.270;8.696;2023-07-28T13:39:39;21.00;99.90
8095;DHT22;4090;49.270;8.696;2023-07-28T13:42:21;21.00;99.90
8095;DHT22;4090;49.270;8.696;2023-07-28T13:45:05;20.80;99.90
8095;DHT22;4090;49.270;8.696;2023-07-28T13:47:48;20.80;99.90
8095;DHT22;4090;49.270;8.696;2023-07-28T13:50:30;20.80;99.90
8095;DHT22;4090;49.270;8.696;2023-07-28T13:53:12;20.70;99.90
8095;DHT22;4090;49.270;8.696;2023-07-28T13:55:54;20.60;99.90
8095;DHT22;4090;49.270;8.696;2023-07-28T13:58:37;20.60;99.90
8095;DHT22;4090;49.270;8.696;2023-07-28T14:01:20;20.70;99.90
8095;DHT22;4090;49.270;8.696;2023-07-28T14:04:14;20.70;99.90
8095;DHT22;4090;49.270;8.696;2023-07-28T14:06:58;20.60;99.90
8095;DHT22;4090;49.270;8.696;2023-07-28T14:09:40;20.70;99.90
8095;DHT22;4090;49.270;8.696;2023-07-28T14:12:22;20.60;99.90
8095;DHT22;4090;49.270;8.696;2023-07-28T14:15:06;20.60;99.90
8095;DHT22;4090;49.270;8.696;2023-07-28T14:18:23;20.60;99.90
8095;DHT22;4090;49.270;8.696;2023-07-28T14:21:05;20.70;99.90
8095;DHT22;4090;49.270;8.696;2023-07-28T14:23:49;20.60;99.90
8095;DHT22;4090;49.270;8.696;2023-07-28T14:26:32;20.60;99.90
8095;DHT22;4090;49.270;8.696;2023-07-28T14:29:14;20.60;99.90
8095;DHT22;4090;49.270;8.696;2023-07-28T14:31:55;20.60;99.90
8095;DHT22;4090;49.270;8.696;2023-07-28T14:34:39;20.60;99.90
8095;DHT22;4090;49.270;8.696;2023-07-28T14:37:21;20.60;99.90
8095;DHT22;4090;49.270;8.696;2023-07-28T14:40:07;20.60;99.90
8095;DHT22;4090;49.270;8.696;2023-07-28T14:42:49;20.60;99.90
8095;DHT22;4090;49.270;8.696;2023-07-28T14:45:31;20.60;99.90
8095;DHT22;4090;49.270;8.696;2023-07-28T14:48:13;20.60;99.90
8095;DHT22;4090;49.270;8.696;2023-07-28T14:50:56;20.60;99.90
8095;DHT22;4090;49.270;8.696;2023-07-28T14:53:38;20.60;99.90
8095;DHT22;4090;49.270;8.696;2023-07-28T14:56:21;20.50;99.90
8095;DHT22;4090;49.270;8.696;2023-07-28T14:59:05;20.50;99.90
8095;DHT22;4090;49.270;8.696;2023-07-28T15:01:47;20.50;99.90
8095;DHT22;4090;49.270;8.696;2023-07-28T15:04:28;20.50;99.90
8095;DHT22;4090;49.270;8.696;2023-07-28T15:07:12;20.50;99.90
8095;DHT22;4090;49.270;8.696;2023-07-28T15:10:09;20.50;99.90
8095;DHT22;4090;49.270;8.696;2023-07-28T15:12:51;20.60;99.90
8095;DHT22;4090;49.270;8.696;2023-07-28T15:15:33;20.50;99.90
8095;DHT22;4090;49.270;8.696;2023-07-28T15:18:15;20.50;99.90
8095;DHT22;4090;49.270;8.696;2023-07-28T15:20:57;20.60;99.90
8095;DHT22;4090;49.270;8.696;2023-07-28T15:23:42;20.60;99.90
8095;DHT22;4090;49.270;8.696;2023-07-28T15:32:49;20.60;99.90
8095;DHT22;4090;49.270;8.696;2023-07-28T15:35:08;20.60;99.90
8095;DHT22;4090;49.270;8.696;2023-07-28T15:38:04;20.60;99.90
8095;DHT22;4090;49.270;8.696;2023-07-28T15:41:32;20.60;99.90
8095;DHT22;4090;49.270;8.696;2023-07-28T15:44:14;20.60;99.90
8095;DHT22;4090;49.270;8.696;2023-07-28T15:46:55;20.60;99.90
8095;DHT22;4090;49.270;8.696;2023-07-28T15:49:37;20.60;99.90
8095;DHT22;4090;49.270;8.696;2023-07-28T15:52:22;20.50;99.90
8095;DHT22;4090;49.270;8.696;2023-07-28T15:55:05;20.50;99.90
8095;DHT22;4090;49.270;8.696;2023-07-28T15:57:48;20.50;99.90
8095;DHT22;4090;49.270;8.696;2023-07-28T16:00:30;20.50;99.90
8095;DHT22;4090;49.270;8.696;2023-07-28T16:03:12;20.50;99.90
8095;DHT22;4090;49.270;8.696;2023-07-28T16:05:54;20.50;99.90
8095;DHT22;4090;49.270;8.696;2023-07-28T16:08:36;20.50;99.90
8095;DHT22;4090;49.270;8.696;2023-07-28T16:11:17;20.60;99.90
8095;DHT22;4090;49.270;8.696;2023-07-28T16:14:02;20.50;99.90
8095;DHT22;4090;49.270;8.696;2023-07-28T16:16:44;20.50;99.90
8095;DHT22;4090;49.270;8.696;2023-07-28T16:19:26;20.50;99.90
8095;DHT22;4090;49.270;8.696;2023-07-28T16:22:08;20.50;99.90
8095;DHT22;4090;49.270;8.696;2023-07-28T16:24:50;20.60;99.90
8095;DHT22;4090;49.270;8.696;2023-07-28T16:27:31;20.60;99.90
8095;DHT22;4090;49.270;8.696;2023-07-28T16:30:15;20.60;99.90
8095;DHT22;4090;49.270;8.696;2023-07-28T16:32:57;20.60;99.90
8095;DHT22;4090;49.270;8.696;2023-07-28T16:35:39;20.60;99.90
8095;DHT22;4090;49.270;8.696;2023-07-28T16:38:21;20.60;99.90
8095;DHT22;4090;49.270;8.696;2023-07-28T16:41:03;20.60;99.90
8095;DHT22;4090;49.270;8.696;2023-07-28T16:43:44;20.60;99.90
8095;DHT22;4090;49.270;8.696;2023-07-28T16:46:28;20.60;99.90
8095;DHT22;4090;49.270;8.696;2023-07-28T16:49:10;20.60;99.90
8095;DHT22;4090;49.270;8.696;2023-07-28T16:51:51;20.60;99.90
8095;DHT22;4090;49.270;8.696;2023-07-28T16:54:33;20.60;99.90
8095;DHT22;4090;49.270;8.696;2023-07-28T16:57:15;20.60;99.90
8095;DHT22;4090;49.270;8.696;2023-07-28T16:59:57;20.60;99.90
8095;DHT22;4090;49.270;8.696;2023-07-28T17:02:40;20.60;99.90
8095;DHT22;4090;49.270;8.696;2023-07-28T17:05:22;20.60;99.90
8095;DHT22;4090;49.270;8.696;2023-07-28T17:08:05;20.60;99.90
8095;DHT22;4090;49.270;8.696;2023-07-28T17:10:47;20.60;99.90
8095;DHT22;4090;49.270;8.696;2023-07-28T17:13:29;20.60;99.90
8095;DHT22;4090;49.270;8.696;2023-07-28T17:16:11;20.60;99.90
8095;DHT22;4090;49.270;8.696;2023-07-28T17:18:54;20.60;99.90
8095;DHT22;4090;49.270;8.696;2023-07-28T17:21:36;20.60;99.90
8095;DHT22;4090;49.270;8.696;2023-07-28T17:24:18;20.70;99.90
8095;DHT22;4090;49.270;8.696;2023-07-28T17:27:00;20.70;99.90
8095;DHT22;4090;49.270;8.696;2023-07-28T17:29:42;20.70;99.90
8095;DHT22;4090;49.270;8.696;2023-07-28T17:32:24;20.60;99.90
8095;DHT22;4090;49.270;8.696;2023-07-28T17:35:08;20.60;99.90
8095;DHT22;4090;49.270;8.696;2023-07-28T17:37:50;20.70;99.90
8095;DHT22;4090;49.270;8.696;2023-07-28T17:40:32;20.70;99.90
8095;DHT22;4090;49.270;8.696;2023-07-28T17:43:14;20.70;99.90
8095;DHT22;4090;49.270;8.696;2023-07-28T17:45:56;20.70;99.90
8095;DHT22;4090;49.270;8.696;2023-07-28T17:48:38;20.70;99.90
8095;DHT22;4090;49.270;8.696;2023-07-28T17:51:22;20.70;99.90
8095;DHT22;4090;49.270;8.696;2023-07-28T17:54:03;20.60;99.90
8095;DHT22;4090;49.270;8.696;2023-07-28T17:56:45;20.70;99.90
8095;DHT22;4090;49.270;8.696;2023-07-28T17:59:27;20.60;99.90
8095;DHT22;4090;49.270;8.696;2023-07-28T18:02:09;20.60;99.90
8095;DHT22;4090;49.270;8.696;2023-07-28T18:04:51;20.60;99.90
8095;DHT22;4090;49.270;8.696;2023-07-28T18:07:35;20.70;99.90
8095;DHT22;4090;49.270;8.696;2023-07-28T18:10:17;20.70;99.90
8095;DHT22;4090;49.270;8.696;2023-07-28T18:12:59;20.70;99.90
8095;DHT22;4090;49.270;8.696;2023-07-28T18:15:41;20.70;99.90
8095;DHT22;4090;49.270;8.696;2023-07-28T18:18:23;20.60;99.90
8095;DHT22;4090;49.270;8.696;2023-07-28T18:21:06;20.70;99.90
8095;DHT22;4090;49.270;8.696;2023-07-28T18:23:49;20.60;99.90
8095;DHT22;4090;49.270;8.696;2023-07-28T18:26:35;20.60;99.90
8095;DHT22;4090;49.270;8.696;2023-07-28T18:29:17;20.60;99.90
8095;DHT22;4090;49.270;8.696;2023-07-28T18:31:59;20.60;99.90
8095;DHT22;4090;49.270;8.696;2023-07-28T18:34:41;20.60;99.90
8095;DHT22;4090;49.270;8.696;2023-07-28T18:37:23;20.60;99.90
8095;DHT22;4090;49.270;8.696;2023-07-28T18:40:07;20.60;99.90
8095;DHT22;4090;49.270;8.696;2023-07-28T18:42:49;20.60;99.90
8095;DHT22;4090;49.270;8.696;2023-07-28T18:45:31;20.60;99.90
8095;DHT22;4090;49.270;8.696;2023-07-28T18:48:13;20.60;99.90
8095;DHT22;4090;49.270;8.696;2023-07-28T18:51:00;20.60;99.90
8095;DHT22;4090;49.270;8.696;2023-07-28T18:53:43;20.60;99.90
8095;DHT22;4090;49.270;8.696;2023-07-28T18:56:26;20.60;99.90
8095;DHT22;4090;49.270;8.696;2023-07-28T18:59:08;20.60;99.90
8095;DHT22;4090;49.270;8.696;2023-07-28T19:01:50;20.60;99.90
8095;DHT22;4090;49.270;8.696;2023-07-28T19:04:32;20.60;99.90
8095;DHT22;4090;49.270;8.696;2023-07-28T19:07:14;20.60;99.90
8095;DHT22;4090;49.270;8.696;2023-07-28T19:09:56;20.60;99.90
8095;DHT22;4090;49.270;8.696;2023-07-28T19:12:39;20.60;99.90
8095;DHT22;4090;49.270;8.696;2023-07-28T19:15:21;20.60;99.90
8095;DHT22;4090;49.270;8.696;2023-07-28T19:18:03;20.60;99.90
8095;DHT22;4090;49.270;8.696;2023-07-28T19:20:45;20.60;99.90
8095;DHT22;4090;49.270;8.696;2023-07-28T19:23:27;20.60;99.90
8095;DHT22;4090;49.270;8.696;2023-07-28T19:26:09;20.60;99.90
8095;DHT22;4090;49.270;8.696;2023-07-28T19:28:52;20.60;99.90
8095;DHT22;4090;49.270;8.696;2023-07-28T19:31:34;20.60;99.90
8095;DHT22;4090;49.270;8.696;2023-07-28T19:34:16;20.60;99.90
8095;DHT22;4090;49.270;8.696;2023-07-28T19:36:58;20.60;99.90
8095;DHT22;4090;49.270;8.696;2023-07-28T19:39:40;20.60;99.90
8095;DHT22;4090;49.270;8.696;2023-07-28T19:42:22;20.60;99.90
8095;DHT22;4090;49.270;8.696;2023-07-28T19:45:07;20.60;99.90
8095;DHT22;4090;49.270;8.696;2023-07-28T19:47:49;20.60;99.90
8095;DHT22;4090;49.270;8.696;2023-07-28T19:50:30;20.60;99.90
8095;DHT22;4090;49.270;8.696;2023-07-28T19:53:12;20.60;99.90
8095;DHT22;4090;49.270;8.696;2023-07-28T19:55:55;20.60;99.90
8095;DHT22;4090;49.270;8.696;2023-07-28T19:58:37;20.50;99.90
8095;DHT22;4090;49.270;8.696;2023-07-28T20:01:20;20.50;99.90
8095;DHT22;4090;49.270;8.696;2023-07-28T20:04:02;20.50;99.90
8095;DHT22;4090;49.270;8.696;2023-07-28T20:06:44;20.50;99.90
8095;DHT22;4090;49.270;8.696;2023-07-28T20:09:26;20.50;99.90
8095;DHT22;4090;49.270;8.696;2023-07-28T20:12:09;20.50;99.90
8095;DHT22;4090;49.270;8.696;2023-07-28T20:14:51;20.50;99.90
8095;DHT22;4090;49.270;8.696;2023-07-28T20:17:35;20.50;99.90
8095;DHT22;4090;49.270;8.696;2023-07-28T20:20:17;20.50;99.90
8095;DHT22;4090;49.270;8.696;2023-07-28T20:22:59;20.50;99.90
8095;DHT22;4090;49.270;8.696;2023-07-28T20:25:41;20.50;99.90
8095;DHT22;4090;49.270;8.696;2023-07-28T20:28:23;20.50;99.90
8095;DHT22;4090;49.270;8.696;2023-07-28T20:31:05;20.50;99.90
8095;DHT22;4090;49.270;8.696;2023-07-28T20:33:48;20.50;99.90
8095;DHT22;4090;49.270;8.696;2023-07-28T20:36:31;20.50;99.90
8095;DHT22;4090;49.270;8.696;2023-07-28T20:39:13;20.50;99.90
8095;DHT22;4090;49.270;8.696;2023-07-28T20:41:56;20.40;99.90
8095;DHT22;4090;49.270;8.696;2023-07-28T20:44:38;20.40;99.90
8095;DHT22;4090;49.270;8.696;2023-07-28T20:47:20;20.40;99.90
8095;DHT22;4090;49.270;8.696;2023-07-28T20:50:04;20.40;99.90
8095;DHT22;4090;49.270;8.696;2023-07-28T20:52:46;20.40;99.90
8095;DHT22;4090;49.270;8.696;2023-07-28T20:55:28;20.40;99.90
8095;DHT22;4090;49.270;8.696;2023-07-28T20:58:10;20.40;99.90
8095;DHT22;4090;49.270;8.696;2023-07-28T21:00:52;20.40;99.90
8095;DHT22;4090;49.270;8.696;2023-07-28T21:03:34;20.40;99.90
8095;DHT22;4090;49.270;8.696;2023-07-28T21:06:17;20.40;99.90
8095;DHT22;4090;49.270;8.696;2023-07-28T21:08:59;20.40;99.90
8095;DHT22;4090;49.270;8.696;2023-07-28T21:11:41;20.40;99.90
8095;DHT22;4090;49.270;8.696;2023-07-28T21:14:23;20.40;99.90
8095;DHT22;4090;49.270;8.696;2023-07-28T21:17:05;20.40;99.90
8095;DHT22;4090;49.270;8.696;2023-07-28T21:19:47;20.30;99.90
8095;DHT22;4090;49.270;8.696;2023-07-28T21:22:30;20.30;99.90
8095;DHT22;4090;49.270;8.696;2023-07-28T21:25:12;20.30;99.90
8095;DHT22;4090;49.270;8.696;2023-07-28T21:27:54;20.30;99.90
8095;DHT22;4090;49.270;8.696;2023-07-28T21:30:36;20.30;99.90
8095;DHT22;4090;49.270;8.696;2023-07-28T21:33:18;20.30;99.90
8095;DHT22;4090;49.270;8.696;2023-07-28T21:36:00;20.30;99.90
8095;DHT22;4090;49.270;8.696;2023-07-28T21:38:43;20.30;99.90
8095;DHT22;4090;49.270;8.696;2023-07-28T21:41:25;20.30;99.90
8095;DHT22;4090;49.270;8.696;2023-07-28T21:44:06;20.30;99.90
8095;DHT22;4090;49.270;8.696;2023-07-28T21:46:48;20.30;99.90
8095;DHT22;4090;49.270;8.696;2023-07-28T21:49:30;20.30;99.90
8095;DHT22;4090;49.270;8.696;2023-07-28T21:52:12;20.30;99.90
8095;DHT22;4090;49.270;8.696;2023-07-28T21:54:55;20.30;99.90
8095;DHT22;4090;49.270;8.696;2023-07-28T21:57:37;20.30;99.90
8095;DHT22;4090;49.270;8.696;2023-07-28T22:00:19;20.30;99.90
8095;DHT22;4090;49.270;8.696;2023-07-28T22:03:01;20.30;99.90
8095;DHT22;4090;49.270;8.696;2023-07-28T22:05:43;20.20;99.90
8095;DHT22;4090;49.270;8.696;2023-07-28T22:08:25;20.20;99.90
8095;DHT22;4090;49.270;8.696;2023-07-28T22:11:14;20.20;99.90
8095;DHT22;4090;49.270;8.696;2023-07-28T22:13:56;20.20;99.90
8095;DHT22;4090;49.270;8.696;2023-07-28T22:16:38;20.20;99.90
8095;DHT22;4090;49.270;8.696;2023-07-28T22:19:20;20.20;99.90
8095;DHT22;4090;49.270;8.696;2023-07-28T22:22:01;20.20;99.90
8095;DHT22;4090;49.270;8.696;2023-07-28T22:24:43;20.20;99.90
8095;DHT22;4090;49.270;8.696;2023-07-28T22:27:26;20.20;99.90
8095;DHT22;4090;49.270;8.696;2023-07-28T22:30:09;20.20;99.90
8095;DHT22;4090;49.270;8.696;2023-07-28T22:32:51;20.20;99.90
8095;DHT22;4090;49.270;8.696;2023-07-28T22:35:37;20.20;99.90
8095;DHT22;4090;49.270;8.696;2023-07-28T22:38:19;20.20;99.90
8095;DHT22;4090;49.270;8.696;2023-07-28T22:41:01;20.10;99.90
8095;DHT22;4090;49.270;8.696;2023-07-28T22:43:44;20.10;99.90
8095;DHT22;4090;49.270;8.696;2023-07-28T22:46:26;20.20;99.90
8095;DHT22;4090;49.270;8.696;2023-07-28T22:49:07;20.20;99.90
8095;DHT22;4090;49.270;8.696;2023-07-28T22:51:49;20.10;99.90
8095;DHT22;4090;49.270;8.696;2023-07-28T22:54:31;20.10;99.90
8095;DHT22;4090;49.270;8.696;2023-07-28T22:57:13;20.10;99.90
8095;DHT22;4090;49.270;8.696;2023-07-28T22:59:56;20.10;99.90
8095;DHT22;4090;49.270;8.696;2023-07-28T23:02:38;20.10;99.90
8095;DHT22;4090;49.270;8.696;2023-07-28T23:05:20;20.10;99.90
8095;DHT22;4090;49.270;8.696;2023-07-28T23:08:02;20.10;99.90
8095;DHT22;4090;49.270;8.696;2023-07-28T23:10:44;20.10;99.90
8095;DHT22;4090;49.270;8.696;2023-07-28T23:13:26;20.10;99.90
8095;DHT22;4090;49.270;8.696;2023-07-28T23:16:09;20.10;99.90
8095;DHT22;4090;49.270;8.696;2023-07-28T23:18:51;20.10;99.90
8095;DHT22;4090;49.270;8.696;2023-07-28T23:21:33;20.10;99.90
8095;DHT22;4090;49.270;8.696;2023-07-28T23:24:15;20.10;99.90
8095;DHT22;4090;49.270;8.696;2023-07-28T23:26:57;20.10;99.90
8095;DHT22;4090;49.270;8.696;2023-07-28T23:29:39;20.10;99.90
8095;DHT22;4090;49.270;8.696;2023-07-28T23:32:22;20.10;99.90
8095;DHT22;4090;49.270;8.696;2023-07-28T23:35:04;20.10;99.90
8095;DHT22;4090;49.270;8.696;2023-07-28T23:37:46;20.10;99.90
8095;DHT22;4090;49.270;8.696;2023-07-28T23:40:28;20.10;99.90
8095;DHT22;4090;49.270;8.696;2023-07-28T23:43:10;20.10;99.90
8095;DHT22;4090;49.270;8.696;2023-07-28T23:45:52;20.10;99.90
8095;DHT22;4090;49.270;8.696;2023-07-28T23:48:40;20.10;99.90
8095;DHT22;4090;49.270;8.696;2023-07-28T23:51:21;20.10;99.90
8095;DHT22;4090;49.270;8.696;2023-07-28T23:54:03;20.10;99.90
8095;DHT22;4090;49.270;8.696;2023-07-28T23:56:46;20.10;99.90
8095;DHT22;4090;49.270;8.696;2023-07-28T23:59:28;20.10;99.90
